createdAt,value
2023-03-06T00:01:44.942Z,0.60
2023-03-06T00:04:11.536Z,0.65
2023-03-06T00:06:37.924Z,0.67
2023-03-06T00:09:04.261Z,0.53
2023-03-06T00:11:30.597Z,0.65
2023-03-06T00:13:56.928Z,0.79
2023-03-06T00:16:23.393Z,0.88
2023-03-06T00:18:49.771Z,0.84
2023-03-06T00:21:16.109Z,0.75
2023-03-06T00:23:42.444Z,0.67
2023-03-06T00:26:08.782Z,0.66
2023-03-06T00:28:35.120Z,0.63
2023-03-06T00:31:01.469Z,0.61
2023-03-06T00:33:27.794Z,0.56
2023-03-06T00:35:54.162Z,0.59
2023-03-06T00:38:20.486Z,0.66
2023-03-06T00:40:46.798Z,0.66
2023-03-06T00:43:13.127Z,0.70
2023-03-06T00:45:39.532Z,0.77
2023-03-06T00:48:05.922Z,0.69
2023-03-06T00:50:32.254Z,0.68
2023-03-06T00:52:58.605Z,0.53
2023-03-06T00:55:24.961Z,0.56
2023-03-06T00:57:51.346Z,0.52
2023-03-06T01:00:17.734Z,0.50
2023-03-06T01:02:44.117Z,0.56
2023-03-06T01:05:10.499Z,0.59
2023-03-06T01:07:36.890Z,0.64
2023-03-06T01:10:03.226Z,0.67
2023-03-06T01:12:29.565Z,0.63
2023-03-06T01:14:55.889Z,0.55
2023-03-06T01:17:22.213Z,0.48
2023-03-06T01:19:48.691Z,0.39
2023-03-06T01:22:15.017Z,0.37
2023-03-06T01:24:41.339Z,0.29
2023-03-06T01:27:07.652Z,0.15
2023-03-06T01:29:33.971Z,0.14
2023-03-06T01:32:00.378Z,0.05
2023-03-06T01:34:26.749Z,0.01
2023-03-06T01:36:53.085Z,0.14
2023-03-06T01:39:19.416Z,0.15
2023-03-06T01:41:45.727Z,0.20
2023-03-06T01:44:12.082Z,0.22
2023-03-06T01:46:38.415Z,0.13
2023-03-06T01:49:04.732Z,0.17
2023-03-06T01:51:31.067Z,0.28
2023-03-06T01:53:57.402Z,0.37
2023-03-06T01:56:23.717Z,0.38
2023-03-06T01:58:50.094Z,0.39
2023-03-06T02:01:16.438Z,0.27
2023-03-06T02:03:42.766Z,0.26
2023-03-06T02:06:09.094Z,0.20
2023-03-06T02:08:35.440Z,0.15
2023-03-06T02:11:01.758Z,0.16
2023-03-06T02:13:28.071Z,0.12
2023-03-06T02:15:54.409Z,0.06
2023-03-06T02:18:20.730Z,0.06
2023-03-06T02:20:47.043Z,0.01
2023-03-06T02:23:13.389Z,0.03
2023-03-06T02:25:39.703Z,0.01
2023-03-06T02:28:06.030Z,-0.01
2023-03-06T02:30:32.363Z,-0.06
2023-03-06T02:32:58.711Z,-0.05
2023-03-06T02:35:25.078Z,-0.14
2023-03-06T02:37:51.449Z,-0.14
2023-03-06T02:40:17.785Z,-0.07
2023-03-06T02:42:44.181Z,-0.08
2023-03-06T02:45:10.506Z,0.02
2023-03-06T02:47:36.826Z,0.07
2023-03-06T02:50:03.159Z,0.04
2023-03-06T02:52:29.511Z,0.05
2023-03-06T02:54:55.842Z,0.02
2023-03-06T02:57:22.170Z,-0.06
2023-03-06T02:59:48.518Z,-0.04
2023-03-06T03:02:14.854Z,-0.07
2023-03-06T03:04:41.217Z,-0.12
2023-03-06T03:07:07.560Z,-0.12
2023-03-06T03:09:33.910Z,-0.05
2023-03-06T03:12:00.229Z,0.03
2023-03-06T03:14:26.542Z,0.02
2023-03-06T03:16:52.870Z,-0.05
2023-03-06T03:19:19.202Z,-0.06
2023-03-06T03:21:45.532Z,-0.12
2023-03-06T03:24:11.850Z,-0.06
2023-03-06T03:26:38.197Z,-0.12
2023-03-06T03:29:04.528Z,-0.04
2023-03-06T03:31:30.849Z,-0.09
2023-03-06T03:33:57.193Z,-0.11
2023-03-06T03:36:23.514Z,-0.15
2023-03-06T03:38:49.854Z,-0.19
2023-03-06T03:41:16.202Z,-0.17
2023-03-06T03:43:42.529Z,-0.15
2023-03-06T03:46:08.933Z,-0.09
2023-03-06T03:48:35.275Z,-0.01
2023-03-06T03:51:01.606Z,0.02
2023-03-06T03:53:27.948Z,-0.01
2023-03-06T03:55:54.272Z,0.06
2023-03-06T03:58:20.594Z,0.07
2023-03-06T04:00:46.912Z,0.01
2023-03-06T04:03:13.301Z,-0.08
2023-03-06T04:05:39.633Z,-0.03
2023-03-06T04:08:05.963Z,-0.07
2023-03-06T04:10:32.285Z,-0.02
2023-03-06T04:12:58.623Z,-0.09
2023-03-06T04:15:24.943Z,-0.09
2023-03-06T04:17:51.317Z,-0.02
2023-03-06T04:20:17.637Z,-0.05
2023-03-06T04:22:43.963Z,-0.06
2023-03-06T04:25:10.303Z,0.04
2023-03-06T04:27:36.621Z,0.05
2023-03-06T04:30:02.945Z,-0.02
2023-03-06T04:32:29.325Z,-0.01
2023-03-06T04:34:55.697Z,-0.09
2023-03-06T04:37:22.044Z,-0.15
2023-03-06T04:39:48.372Z,-0.10
2023-03-06T04:42:14.697Z,-0.09
2023-03-06T04:44:41.026Z,-0.13
2023-03-06T04:47:07.371Z,-0.14
2023-03-06T04:49:33.864Z,-0.13
2023-03-06T04:52:00.238Z,-0.11
2023-03-06T04:54:26.600Z,-0.09
2023-03-06T04:56:52.930Z,-0.10
2023-03-06T04:59:19.244Z,-0.10
2023-03-06T05:01:45.569Z,-0.11
2023-03-06T05:04:11.929Z,-0.18
2023-03-06T05:06:38.286Z,-0.10
2023-03-06T05:09:04.605Z,-0.09
2023-03-06T05:11:30.935Z,-0.05
2023-03-06T05:13:57.264Z,0.02
2023-03-06T05:16:23.673Z,0.08
2023-03-06T05:18:50.763Z,0.14
2023-03-06T05:21:17.154Z,0.16
2023-03-06T05:23:43.598Z,0.15
2023-03-06T05:26:09.926Z,0.18
2023-03-06T05:28:36.229Z,0.22
2023-03-06T05:31:03.532Z,0.29
2023-03-06T05:33:29.914Z,0.42
2023-03-06T05:35:56.247Z,0.78
2023-03-06T05:38:22.589Z,1.11
2023-03-06T05:40:48.918Z,1.24
2023-03-06T05:43:15.253Z,1.39
2023-03-06T05:45:41.624Z,1.58
2023-03-06T05:48:07.971Z,1.76
2023-03-06T05:50:34.295Z,1.87
2023-03-06T05:53:00.629Z,1.98
2023-03-06T05:55:26.981Z,2.10
2023-03-06T05:57:53.318Z,2.17
2023-03-06T06:00:19.654Z,2.19
2023-03-06T06:02:46.126Z,2.19
2023-03-06T06:05:13.192Z,2.25
2023-03-06T06:07:39.619Z,2.38
2023-03-06T06:10:05.973Z,2.39
2023-03-06T06:12:32.309Z,2.47
2023-03-06T06:14:58.649Z,2.59
2023-03-06T06:17:24.974Z,2.60
2023-03-06T06:19:51.311Z,2.62
2023-03-06T06:22:17.633Z,2.69
2023-03-06T06:24:43.953Z,2.72
2023-03-06T06:27:10.280Z,2.83
2023-03-06T06:29:36.610Z,2.90
2023-03-06T06:32:02.981Z,2.92
2023-03-06T06:34:29.371Z,2.97
2023-03-06T06:36:55.713Z,2.99
2023-03-06T06:39:22.028Z,3.03
2023-03-06T06:42:02.354Z,3.11
2023-03-06T06:44:34.673Z,3.13
2023-03-06T06:49:47.326Z,3.16
2023-03-06T06:52:13.688Z,3.06
2023-03-06T06:54:40.004Z,2.84
2023-03-06T06:57:06.328Z,2.63
2023-03-06T06:59:32.664Z,2.43
2023-03-06T07:01:58.992Z,2.30
2023-03-06T07:04:25.320Z,2.19
2023-03-06T07:06:51.653Z,2.14
2023-03-06T07:09:17.969Z,2.10
2023-03-06T07:11:44.279Z,2.04
2023-03-06T07:14:10.603Z,2.11
2023-03-06T07:16:36.928Z,2.10
2023-03-06T07:19:03.272Z,2.14
2023-03-06T07:21:29.618Z,2.12
2023-03-06T07:23:55.936Z,2.13
2023-03-06T07:26:22.275Z,2.35
2023-03-06T07:28:52.591Z,2.31
2023-03-06T07:31:19.370Z,2.33
2023-03-06T07:33:45.725Z,2.34
2023-03-06T07:36:13.599Z,2.35
2023-03-06T07:38:40.302Z,2.35
2023-03-06T07:41:06.619Z,2.41
2023-03-06T07:43:32.944Z,2.46
2023-03-06T07:45:59.287Z,2.52
2023-03-06T07:48:25.634Z,2.45
2023-03-06T07:50:51.947Z,2.48
2023-03-06T07:53:18.298Z,2.53
2023-03-06T07:55:44.684Z,2.61
2023-03-06T07:58:11.018Z,2.66
2023-03-06T08:00:37.353Z,2.72
2023-03-06T08:03:03.814Z,2.76
2023-03-06T08:05:30.205Z,2.88
2023-03-06T08:07:56.542Z,2.92
2023-03-06T08:10:22.854Z,3.04
2023-03-06T08:12:49.193Z,3.13
2023-03-06T08:15:15.518Z,3.22
2023-03-06T08:17:41.844Z,3.29
2023-03-06T08:20:08.196Z,3.32
2023-03-06T08:22:34.536Z,3.40
2023-03-06T08:25:00.884Z,3.26
2023-03-06T08:27:27.228Z,3.25
2023-03-06T08:29:53.556Z,3.40
2023-03-06T08:32:19.935Z,3.44
2023-03-06T08:34:46.280Z,3.50
2023-03-06T08:37:12.599Z,3.67
2023-03-06T08:39:38.940Z,3.67
2023-03-06T08:42:05.262Z,3.68
2023-03-06T08:44:31.594Z,3.67
2023-03-06T08:46:57.934Z,3.75
2023-03-06T08:49:24.253Z,3.77
2023-03-06T08:51:50.574Z,3.87
2023-03-06T08:54:16.885Z,3.90
2023-03-06T08:56:43.217Z,3.99
2023-03-06T08:59:09.541Z,4.01
2023-03-06T09:01:35.966Z,3.93
2023-03-06T09:04:02.341Z,3.93
2023-03-06T09:06:28.686Z,4.11
2023-03-06T09:08:55.032Z,4.08
2023-03-06T09:11:21.370Z,4.09
2023-03-06T09:13:47.707Z,4.03
2023-03-06T09:16:14.083Z,4.04
2023-03-06T09:18:40.442Z,4.08
2023-03-06T09:21:06.779Z,4.02
2023-03-06T09:23:33.097Z,4.01
2023-03-06T09:25:59.449Z,4.14
2023-03-06T09:28:25.807Z,4.19
2023-03-06T09:30:52.205Z,4.20
2023-03-06T09:33:18.553Z,4.23
2023-03-06T09:35:44.879Z,4.36
2023-03-06T09:38:11.209Z,4.43
2023-03-06T09:40:37.554Z,4.47
2023-03-06T09:43:03.892Z,4.47
2023-03-06T09:45:30.225Z,4.39
2023-03-06T09:47:56.555Z,4.41
2023-03-06T09:50:22.937Z,4.47
2023-03-06T09:52:49.306Z,4.52
2023-03-06T09:55:15.657Z,4.53
2023-03-06T09:57:42.003Z,4.51
2023-03-06T10:00:08.331Z,4.43
2023-03-06T10:02:34.732Z,4.45
2023-03-06T10:05:01.243Z,4.43
2023-03-06T10:07:27.620Z,4.42
2023-03-06T10:09:53.942Z,4.60
2023-03-06T10:12:20.271Z,4.74
2023-03-06T10:14:48.904Z,4.94
2023-03-06T10:17:15.593Z,4.97
2023-03-06T10:19:41.921Z,5.07
2023-03-06T10:22:08.274Z,5.14
2023-03-06T10:24:34.608Z,5.19
2023-03-06T10:27:01.152Z,5.32
2023-03-06T10:29:27.506Z,5.49
2023-03-06T10:31:53.845Z,5.46
2023-03-06T10:34:20.209Z,5.56
2023-03-06T10:36:46.552Z,5.72
2023-03-06T10:39:12.870Z,5.75
2023-03-06T10:41:39.207Z,5.70
2023-03-06T10:44:05.525Z,5.71
2023-03-06T10:46:31.935Z,5.71
2023-03-06T10:48:58.302Z,5.64
2023-03-06T10:51:24.620Z,5.68
2023-03-06T10:53:50.944Z,5.66
2023-03-06T10:56:17.284Z,5.84
2023-03-06T10:58:43.604Z,5.96
2023-03-06T11:01:09.918Z,5.94
2023-03-06T11:03:36.375Z,6.03
2023-03-06T11:06:02.763Z,6.05
2023-03-06T11:08:29.110Z,6.12
2023-03-06T11:10:55.426Z,6.10
2023-03-06T11:13:21.775Z,6.22
2023-03-06T11:15:48.133Z,6.17
2023-03-06T11:18:14.501Z,6.24
2023-03-06T11:20:50.974Z,6.25
2023-03-06T11:23:18.077Z,6.18
2023-03-06T11:25:44.406Z,6.29
2023-03-06T11:28:10.726Z,6.42
2023-03-06T11:30:37.047Z,6.37
2023-03-06T11:33:03.384Z,6.32
2023-03-06T11:35:29.750Z,6.31
2023-03-06T11:37:56.099Z,6.33
2023-03-06T11:40:22.423Z,6.48
2023-03-06T11:42:48.752Z,6.54
2023-03-06T11:45:15.073Z,6.56
2023-03-06T11:47:41.437Z,6.64
2023-03-06T11:50:07.767Z,6.67
2023-03-06T11:52:34.097Z,6.66
2023-03-06T11:55:00.422Z,6.83
2023-03-06T11:57:26.861Z,6.93
2023-03-06T11:59:53.200Z,6.99
2023-03-06T12:02:19.546Z,6.95
2023-03-06T12:04:45.908Z,6.88
2023-03-06T12:07:12.234Z,6.95
2023-03-06T12:09:38.592Z,6.99
2023-03-06T12:12:04.906Z,7.10
2023-03-06T12:14:31.224Z,7.06
2023-03-06T12:16:57.554Z,7.33
2023-03-06T12:19:23.876Z,7.40
2023-03-06T12:21:50.213Z,7.50
2023-03-06T12:24:16.536Z,7.47
2023-03-06T12:26:42.861Z,7.62
2023-03-06T12:29:09.219Z,7.76
2023-03-06T12:31:35.574Z,7.76
2023-03-06T12:34:01.910Z,7.84
2023-03-06T12:36:28.245Z,7.80
2023-03-06T12:38:54.561Z,7.89
2023-03-06T12:41:20.900Z,7.86
2023-03-06T12:43:47.228Z,7.90
2023-03-06T12:46:13.586Z,8.01
2023-03-06T12:48:39.923Z,7.95
2023-03-06T12:51:06.278Z,8.10
2023-03-06T12:53:32.611Z,8.26
2023-03-06T12:55:59.030Z,8.32
2023-03-06T12:58:25.342Z,8.35
2023-03-06T13:00:58.537Z,8.46
2023-03-06T13:03:26.202Z,8.48
2023-03-06T13:05:52.541Z,8.52
2023-03-06T13:08:18.865Z,8.54
2023-03-06T13:10:45.193Z,8.65
2023-03-06T13:13:11.508Z,8.69
2023-03-06T13:15:37.820Z,8.66
2023-03-06T13:18:04.128Z,8.58
2023-03-06T13:20:30.452Z,8.76
2023-03-06T13:22:56.786Z,8.85
2023-03-06T13:25:23.157Z,8.88
2023-03-06T13:27:49.514Z,8.88
2023-03-06T13:30:15.850Z,8.96
2023-03-06T13:32:42.179Z,8.98
2023-03-06T13:35:08.525Z,9.09
2023-03-06T13:37:34.856Z,9.00
2023-03-06T13:40:01.190Z,8.86
2023-03-06T13:42:27.524Z,8.81
2023-03-06T13:44:53.847Z,8.49
2023-03-06T13:47:20.158Z,8.49
2023-03-06T13:49:46.546Z,8.54
2023-03-06T13:52:12.873Z,8.39
2023-03-06T13:54:39.190Z,8.54
2023-03-06T13:57:05.517Z,8.59
2023-03-06T13:59:31.860Z,8.71
2023-03-06T14:01:58.202Z,8.90
2023-03-06T14:04:24.514Z,8.85
2023-03-06T14:06:50.858Z,8.86
2023-03-06T14:09:17.179Z,8.92
2023-03-06T14:11:43.498Z,8.95
2023-03-06T14:14:09.830Z,8.90
2023-03-06T14:16:49.073Z,9.13
2023-03-06T14:19:16.415Z,8.98
2023-03-06T14:21:42.730Z,8.98
2023-03-06T14:24:09.039Z,8.87
2023-03-06T14:26:35.364Z,8.95
2023-03-06T14:29:01.692Z,8.97
2023-03-06T14:31:28.012Z,8.99
2023-03-06T14:33:54.330Z,9.01
2023-03-06T14:36:20.644Z,8.77
2023-03-06T14:38:47.017Z,8.75
2023-03-06T14:41:14.307Z,8.77
2023-03-06T14:43:40.667Z,8.64
2023-03-06T14:46:07.038Z,8.42
2023-03-06T14:48:33.447Z,8.37
2023-03-06T14:50:59.763Z,8.39
2023-03-06T14:53:26.117Z,8.53
2023-03-06T14:55:52.459Z,8.64
2023-03-06T14:58:18.780Z,8.56
2023-03-06T15:00:45.125Z,8.59
2023-03-06T15:03:11.555Z,8.65
2023-03-06T15:05:37.889Z,8.73
2023-03-06T15:08:04.222Z,8.50
2023-03-06T15:10:30.584Z,8.60
2023-03-06T15:12:56.915Z,8.62
2023-03-06T15:15:23.267Z,8.86
2023-03-06T15:17:49.607Z,8.92
2023-03-06T15:20:15.929Z,8.79
2023-03-06T15:22:42.246Z,8.68
2023-03-06T15:25:08.582Z,8.49
2023-03-06T15:27:34.913Z,8.47
2023-03-06T15:30:01.257Z,8.51
2023-03-06T15:32:27.633Z,8.56
2023-03-06T15:34:53.998Z,8.64
2023-03-06T15:37:20.377Z,8.43
2023-03-06T15:39:46.723Z,8.34
2023-03-06T15:42:13.050Z,8.38
2023-03-06T15:44:39.379Z,8.34
2023-03-06T15:47:09.387Z,8.37
2023-03-06T15:49:35.951Z,8.21
2023-03-06T15:52:02.313Z,8.22
2023-03-06T15:54:28.663Z,8.15
2023-03-06T15:56:54.987Z,8.19
2023-03-06T15:59:21.302Z,8.06
2023-03-06T16:01:47.668Z,7.93
2023-03-06T16:04:14.058Z,8.00
2023-03-06T16:06:40.427Z,8.01
2023-03-06T16:09:06.775Z,7.95
2023-03-06T16:11:43.396Z,7.64
2023-03-06T16:14:10.188Z,7.45
2023-03-06T16:16:36.527Z,7.45
2023-03-06T16:19:02.893Z,7.53
2023-03-06T16:21:29.210Z,7.44
2023-03-06T16:23:55.577Z,7.29
2023-03-06T16:26:22.002Z,7.15
2023-03-06T16:28:48.345Z,7.12
2023-03-06T16:31:14.746Z,6.97
2023-03-06T16:33:41.107Z,6.88
2023-03-06T16:36:07.434Z,6.85
2023-03-06T16:38:33.783Z,6.72
2023-03-06T16:41:00.210Z,6.58
2023-03-06T16:43:26.523Z,6.46
2023-03-06T16:45:52.861Z,6.44
2023-03-06T16:48:19.214Z,6.25
2023-03-06T16:50:45.569Z,6.23
2023-03-06T16:53:11.901Z,6.17
2023-03-06T16:55:38.244Z,6.13
2023-03-06T16:58:04.584Z,6.04
2023-03-06T17:00:31.372Z,5.97
2023-03-06T17:02:57.717Z,5.99
2023-03-06T17:05:24.072Z,5.94
2023-03-06T17:07:50.426Z,5.79
2023-03-06T17:10:16.775Z,5.66
2023-03-06T17:12:43.107Z,5.55
2023-03-06T17:15:09.442Z,5.38
2023-03-06T17:17:35.781Z,5.21
2023-03-06T17:20:02.246Z,5.13
2023-03-06T17:22:28.604Z,5.21
2023-03-06T17:24:54.921Z,5.22
2023-03-06T17:27:21.235Z,5.19
2023-03-06T17:29:47.574Z,5.13
2023-03-06T17:32:13.931Z,4.98
2023-03-06T17:34:40.486Z,4.95
2023-03-06T17:37:06.825Z,4.91
2023-03-06T17:39:33.182Z,4.89
2023-03-06T17:41:59.501Z,4.87
2023-03-06T17:44:25.834Z,4.90
2023-03-06T17:46:52.193Z,4.78
2023-03-06T17:49:18.534Z,4.89
2023-03-06T17:51:44.870Z,4.82
2023-03-06T17:54:11.220Z,4.73
2023-03-06T17:56:37.540Z,4.75
2023-03-06T17:59:03.897Z,4.59
2023-03-06T18:01:30.293Z,4.57
2023-03-06T18:03:56.633Z,4.58
2023-03-06T18:18:30.649Z,3.84
2023-03-06T18:20:56.986Z,3.77
2023-03-06T18:23:23.317Z,3.87
2023-03-06T18:25:49.651Z,3.93
2023-03-06T18:28:15.991Z,3.87
2023-03-06T18:30:42.345Z,3.90
2023-03-06T18:33:08.665Z,3.84
2023-03-06T18:35:35.044Z,3.92
2023-03-06T18:38:01.385Z,3.96
2023-03-06T18:40:27.709Z,3.96
2023-03-06T18:42:54.031Z,3.98
2023-03-06T18:45:20.384Z,4.06
2023-03-06T18:47:46.727Z,4.01
2023-03-06T18:50:13.062Z,4.05
2023-03-06T18:52:39.410Z,4.01
2023-03-06T18:55:05.752Z,4.03
2023-03-06T18:57:32.094Z,3.95
2023-03-06T18:59:58.429Z,4.00
2023-03-06T19:02:24.753Z,3.96
2023-03-06T19:04:51.101Z,3.92
2023-03-06T19:07:17.491Z,3.72
2023-03-06T19:09:43.823Z,3.73
2023-03-06T19:12:10.166Z,3.62
2023-03-06T19:14:36.486Z,3.62
2023-03-06T19:17:02.862Z,3.53
2023-03-06T19:19:29.193Z,3.71
2023-03-06T19:21:55.536Z,3.57
2023-03-06T19:24:21.879Z,3.69
2023-03-06T19:26:48.209Z,3.68
2023-03-06T19:29:14.551Z,3.71
2023-03-06T19:31:40.921Z,3.68
2023-03-06T19:34:07.306Z,3.64
2023-03-06T19:36:34.033Z,3.68
2023-03-06T19:39:00.385Z,3.53
2023-03-06T19:41:26.795Z,3.52
2023-03-06T19:43:53.147Z,3.48
2023-03-06T19:46:19.548Z,3.45
2023-03-06T19:48:45.966Z,3.39
2023-03-06T19:51:12.295Z,3.42
2023-03-06T19:53:38.651Z,3.46
2023-03-06T19:56:04.983Z,3.35
2023-03-06T19:58:31.307Z,3.07
2023-03-06T20:00:57.677Z,3.13
2023-03-06T20:03:24.048Z,3.13
2023-03-06T20:05:50.365Z,3.21
2023-03-06T20:08:16.699Z,3.09
2023-03-06T20:10:43.039Z,2.95
2023-03-06T20:13:09.374Z,3.01
2023-03-06T20:15:35.752Z,2.96
2023-03-06T20:18:02.081Z,2.90
2023-03-06T20:20:28.395Z,2.99
2023-03-06T20:22:54.745Z,3.03
2023-03-06T20:25:21.068Z,3.10
2023-03-06T20:27:47.412Z,3.11
2023-03-06T20:30:13.742Z,3.00
2023-03-06T20:32:40.153Z,3.07
2023-03-06T20:35:06.494Z,2.81
2023-03-06T20:37:32.809Z,2.83
2023-03-06T20:39:59.135Z,3.00
2023-03-06T20:42:25.447Z,3.01
2023-03-06T20:44:51.777Z,3.02
2023-03-06T20:47:18.099Z,3.07
2023-03-06T20:49:44.416Z,3.00
2023-03-06T20:52:10.754Z,3.00
2023-03-06T20:54:37.542Z,3.14
2023-03-06T20:57:03.875Z,3.23
2023-03-06T20:59:30.218Z,3.10
2023-03-06T21:01:56.597Z,3.20
2023-03-06T21:04:22.956Z,3.20
2023-03-06T21:06:49.279Z,3.06
2023-03-06T21:09:15.618Z,3.00
2023-03-06T21:11:41.943Z,2.99
2023-03-06T21:14:08.289Z,2.96
2023-03-06T21:16:34.655Z,3.05
2023-03-06T21:19:00.991Z,2.96
2023-03-06T21:21:27.319Z,2.97
2023-03-06T21:23:53.668Z,3.04
2023-03-06T21:26:20.030Z,3.09
2023-03-06T21:28:46.346Z,3.10
2023-03-06T21:31:12.707Z,2.93
2023-03-06T21:33:39.076Z,2.78
2023-03-06T21:36:05.412Z,2.72
2023-03-06T21:38:31.750Z,2.61
2023-03-06T21:40:58.091Z,2.55
2023-03-06T21:43:24.434Z,2.55
2023-03-06T21:45:50.763Z,2.50
2023-03-06T21:48:17.121Z,2.43
2023-03-06T21:50:43.456Z,2.47
2023-03-06T21:53:09.783Z,2.54
2023-03-06T21:55:36.117Z,2.46
2023-03-06T21:58:02.447Z,2.43
2023-03-06T22:00:28.753Z,2.41
2023-03-06T22:02:55.086Z,2.53
2023-03-06T22:05:21.437Z,2.54
2023-03-06T22:07:47.773Z,2.43
2023-03-06T22:10:14.086Z,2.52
2023-03-06T22:12:40.434Z,2.68
2023-03-06T22:15:06.787Z,2.75
2023-03-06T22:17:33.103Z,2.73
2023-03-06T22:19:59.438Z,2.75
2023-03-06T22:22:25.772Z,2.76
2023-03-06T22:24:52.088Z,2.78
2023-03-06T22:27:18.440Z,2.70
2023-03-06T22:29:44.781Z,2.50
2023-03-06T22:32:11.213Z,2.65
2023-03-06T22:34:37.586Z,2.66
2023-03-06T22:37:03.895Z,2.52
2023-03-06T22:39:30.236Z,2.49
2023-03-06T22:41:56.581Z,2.65
2023-03-06T22:44:22.898Z,2.68
2023-03-06T22:46:49.230Z,2.60
2023-03-06T22:49:15.558Z,2.53
2023-03-06T22:51:41.879Z,2.57
2023-03-06T22:54:08.226Z,2.56
2023-03-06T22:56:34.561Z,2.56
2023-03-06T22:59:00.886Z,2.53
2023-03-06T23:01:27.243Z,2.47
2023-03-06T23:03:53.589Z,2.38
2023-03-06T23:06:19.932Z,2.31
2023-03-06T23:08:46.281Z,2.26
2023-03-06T23:11:12.610Z,2.23
2023-03-06T23:13:38.947Z,2.56
2023-03-06T23:16:05.342Z,2.41
2023-03-06T23:18:31.678Z,2.33
2023-03-06T23:20:58.069Z,2.25
2023-03-06T23:23:24.410Z,2.14
2023-03-06T23:25:50.743Z,2.05
2023-03-06T23:28:17.105Z,1.88
2023-03-06T23:30:43.471Z,1.81
2023-03-06T23:33:09.877Z,1.83
2023-03-06T23:35:36.282Z,1.83
2023-03-06T23:38:02.634Z,1.90
2023-03-06T23:40:29.049Z,1.88
2023-03-06T23:42:55.398Z,1.84
2023-03-06T23:45:21.736Z,1.76
2023-03-06T23:47:48.055Z,1.72
2023-03-06T23:50:14.456Z,1.62
2023-03-06T23:52:40.820Z,1.60
2023-03-06T23:55:07.178Z,1.53
2023-03-06T23:57:33.524Z,1.47
2023-03-06T23:59:59.865Z,1.45
